Time;durP1;ratioP1;P1;durP2;ratioP2;P2;SDS_P1;SDS_P2;PMS_P1;PMS_P2;Temp;Humidity;BMP_temperature;BMP_pressure;BME280_temperature;BME280_humidity;BME280_pressure;Samples;Min_cycle;Max_cycle;Signal;HPM_P1;HPM_P2
2023/05/12 00:01:40;;;;;;;16.05;10.07;;;11.60;99.90;;;;;;5075668;28;20046;-77
2023/05/12 00:04:06;;;;;;;20.45;11.57;;;11.60;99.90;;;;;;5092362;28;20052;-77
2023/05/12 00:06:32;;;;;;;20.35;12.82;;;11.60;99.90;;;;;;5092175;28;20032;-77
2023/05/12 00:08:58;;;;;;;25.40;13.52;;;11.60;99.90;;;;;;5091758;28;20036;-77
2023/05/12 00:11:24;;;;;;;22.42;13.40;;;11.60;99.90;;;;;;5092339;28;20036;-77
2023/05/12 00:13:50;;;;;;;23.88;14.18;;;11.70;99.90;;;;;;5091785;28;20111;-77
2023/05/12 00:16:17;;;;;;;22.58;14.73;;;11.70;99.90;;;;;;5075194;28;20051;-77
2023/05/12 00:18:43;;;;;;;21.52;14.15;;;11.70;99.90;;;;;;5092343;28;20526;-79
2023/05/12 00:21:09;;;;;;;24.00;14.40;;;11.70;99.90;;;;;;5075266;28;20036;-77
2023/05/12 00:23:34;;;;;;;23.10;14.70;;;11.80;99.90;;;;;;5092389;28;20055;-77
2023/05/12 00:26:00;;;;;;;20.58;13.00;;;11.80;99.90;;;;;;5092121;28;20036;-78
2023/05/12 00:28:25;;;;;;;26.70;14.55;;;11.70;99.90;;;;;;5092143;28;20119;-77
2023/05/12 00:30:51;;;;;;;22.23;12.88;;;11.80;99.90;;;;;;5092120;28;20043;-78
2023/05/12 00:33:16;;;;;;;23.55;12.73;;;11.80;99.90;;;;;;5092541;28;20028;-77
2023/05/12 00:35:44;;;;;;;18.25;12.57;;;11.80;99.90;;;;;;5092351;28;20042;-79
2023/05/12 00:38:13;;;;;;;24.00;12.57;;;11.80;99.90;;;;;;5091919;28;20044;-78
2023/05/12 00:40:40;;;;;;;24.08;12.25;;;11.80;99.90;;;;;;5108333;28;20036;-77
2023/05/12 00:43:07;;;;;;;19.27;11.63;;;11.80;99.90;;;;;;5074607;28;20036;-78
2023/05/12 00:45:32;;;;;;;16.42;10.98;;;11.80;99.90;;;;;;5093094;28;20124;-79
2023/05/12 00:47:58;;;;;;;23.77;12.95;;;11.90;99.90;;;;;;5093414;28;20063;-78
2023/05/12 00:50:24;;;;;;;26.02;12.75;;;11.80;99.90;;;;;;5092095;28;20541;-78
2023/05/12 00:52:49;;;;;;;19.60;12.45;;;11.80;99.90;;;;;;5093188;28;20032;-79
2023/05/12 00:55:15;;;;;;;20.42;12.70;;;11.80;99.90;;;;;;5092982;28;20412;-78
2023/05/12 00:57:42;;;;;;;20.95;12.50;;;11.80;99.90;;;;;;5107933;28;20173;-79
2023/05/12 01:00:08;;;;;;;20.83;12.32;;;11.80;99.90;;;;;;5093990;28;20040;-79
2023/05/12 01:02:35;;;;;;;23.20;13.30;;;11.80;99.90;;;;;;5092970;28;20051;-79
2023/05/12 01:05:01;;;;;;;24.10;12.77;;;11.80;99.90;;;;;;5096201;28;20050;-78
2023/05/12 01:07:30;;;;;;;20.08;13.00;;;11.80;99.90;;;;;;5100470;28;20048;-79
2023/05/12 01:09:56;;;;;;;22.02;13.10;;;11.90;99.90;;;;;;5101212;28;20048;-78
2023/05/12 01:12:26;;;;;;;20.58;13.32;;;11.90;99.90;;;;;;5102535;28;20458;-79
2023/05/12 01:14:53;;;;;;;24.88;13.70;;;11.90;99.90;;;;;;5100452;28;20028;-78
2023/05/12 01:17:25;;;;;;;24.63;14.10;;;11.90;99.90;;;;;;5099881;28;20066;-78
2023/05/12 01:19:54;;;;;;;25.58;13.25;;;11.90;99.90;;;;;;5098776;28;20669;-78
2023/05/12 01:22:20;;;;;;;24.33;14.05;;;11.90;99.90;;;;;;5083961;28;20111;-78
2023/05/12 01:24:55;;;;;;;23.85;13.55;;;11.90;99.90;;;;;;5099968;28;20059;-78
2023/05/12 01:27:24;;;;;;;20.20;13.13;;;11.90;99.90;;;;;;5098998;28;20032;-79
2023/05/12 01:29:51;;;;;;;27.17;14.98;;;11.90;99.90;;;;;;5114415;28;20028;-78
2023/05/12 01:32:17;;;;;;;23.70;14.27;;;11.90;99.90;;;;;;5098931;28;20065;-78
2023/05/12 01:34:43;;;;;;;24.75;13.68;;;11.90;99.90;;;;;;5098181;28;20421;-78
2023/05/12 01:37:09;;;;;;;25.70;14.35;;;12.00;99.90;;;;;;5093426;28;20395;-77
2023/05/12 01:39:35;;;;;;;23.27;14.50;;;12.00;99.90;;;;;;5093423;28;20097;-78
2023/05/12 01:42:02;;;;;;;24.50;14.18;;;12.00;99.90;;;;;;5092882;28;20399;-78
2023/05/12 01:44:27;;;;;;;30.88;15.32;;;11.90;99.90;;;;;;5092806;28;20047;-79
2023/05/12 01:46:53;;;;;;;26.88;15.02;;;12.00;99.90;;;;;;5093142;28;20663;-78
2023/05/12 01:49:18;;;;;;;21.92;13.85;;;12.00;99.90;;;;;;5092058;28;20106;-78
2023/05/12 01:51:44;;;;;;;28.83;14.20;;;12.00;99.90;;;;;;5093551;28;20593;-79
2023/05/12 01:54:09;;;;;;;24.60;14.52;;;12.00;99.90;;;;;;5095339;28;20038;-78
2023/05/12 01:56:35;;;;;;;22.67;14.32;;;12.00;99.90;;;;;;5102980;28;20550;-78
2023/05/12 01:59:01;;;;;;;24.75;14.38;;;12.00;99.90;;;;;;5102352;28;20115;-78
2023/05/12 02:01:27;;;;;;;28.02;15.05;;;12.00;99.90;;;;;;5095261;28;20558;-79
2023/05/12 02:03:56;;;;;;;26.75;15.27;;;12.00;99.90;;;;;;5081941;28;20038;-78
2023/05/12 02:06:22;;;;;;;26.20;14.88;;;12.00;99.90;;;;;;5094719;28;20032;-78
2023/05/12 02:08:48;;;;;;;28.45;14.95;;;12.10;99.90;;;;;;5097009;28;20427;-78
2023/05/12 02:11:14;;;;;;;25.05;14.35;;;12.10;99.90;;;;;;5097756;28;20059;-78
2023/05/12 02:13:40;;;;;;;31.73;16.65;;;12.10;99.90;;;;;;5093931;28;20334;-79
2023/05/12 02:16:06;;;;;;;28.90;16.67;;;12.10;99.90;;;;;;5098562;28;20078;-79
2023/05/12 02:18:32;;;;;;;29.83;16.38;;;12.10;99.90;;;;;;5077698;28;20032;-81
2023/05/12 02:20:58;;;;;;;31.92;16.08;;;12.10;99.90;;;;;;5094128;28;20054;-79
2023/05/12 02:23:23;;;;;;;33.13;17.65;;;12.10;99.90;;;;;;5095451;28;20063;-79
2023/05/12 02:25:49;;;;;;;32.05;17.10;;;12.10;99.90;;;;;;5092318;28;20043;-80
2023/05/12 02:28:14;;;;;;;30.40;17.45;;;12.10;99.90;;;;;;5093979;28;20036;-80
2023/05/12 02:30:45;;;;;;;28.35;16.85;;;12.10;99.90;;;;;;5093394;28;20039;-80
2023/05/12 02:33:11;;;;;;;31.38;18.00;;;12.10;99.90;;;;;;5095027;28;20047;-82
2023/05/12 02:35:37;;;;;;;31.48;17.73;;;12.10;99.90;;;;;;5095072;28;20070;-82
2023/05/12 02:38:03;;;;;;;35.03;18.90;;;12.10;99.90;;;;;;5096395;28;20043;-80
2023/05/12 02:40:29;;;;;;;33.13;18.30;;;12.00;99.90;;;;;;5095791;28;20044;-80
2023/05/12 02:42:55;;;;;;;35.13;18.58;;;12.00;99.90;;;;;;5097384;28;20190;-81
2023/05/12 02:45:20;;;;;;;34.63;17.92;;;12.00;99.90;;;;;;5098041;28;20032;-79
2023/05/12 02:47:47;;;;;;;34.55;18.02;;;12.00;99.90;;;;;;5099217;28;20036;-80
2023/05/12 02:50:13;;;;;;;31.88;17.15;;;12.00;99.90;;;;;;5097207;28;20117;-80
2023/05/12 02:52:38;;;;;;;28.90;17.50;;;12.00;99.90;;;;;;5096130;28;20036;-80
2023/05/12 02:55:04;;;;;;;35.38;18.27;;;12.00;99.90;;;;;;5096344;28;20063;-80
2023/05/12 02:57:32;;;;;;;34.40;17.15;;;12.00;99.90;;;;;;5110041;28;20173;-80
2023/05/12 03:00:05;;;;;;;36.50;18.25;;;12.00;99.90;;;;;;5077644;28;20165;-81
2023/05/12 03:02:40;;;;;;;34.55;17.55;;;12.00;99.90;;;;;;5095781;28;20332;-81
2023/05/12 03:05:07;;;;;;;37.83;18.08;;;12.10;99.90;;;;;;5098832;28;20036;-81
2023/05/12 03:07:33;;;;;;;36.85;18.30;;;12.00;99.90;;;;;;5099906;28;20050;-80
2023/05/12 03:10:00;;;;;;;32.33;16.13;;;12.00;99.90;;;;;;5080910;28;20473;-81
2023/05/12 03:12:28;;;;;;;32.75;17.95;;;12.00;99.90;;;;;;5100105;28;20052;-80
2023/05/12 03:14:53;;;;;;;33.85;18.35;;;12.10;99.90;;;;;;5099960;28;20043;-81
2023/05/12 03:17:19;;;;;;;38.05;18.23;;;12.00;99.90;;;;;;5098517;28;20480;-81
2023/05/12 03:19:45;;;;;;;36.85;17.73;;;12.00;99.90;;;;;;5100266;28;20040;-81
2023/05/12 03:22:10;;;;;;;38.05;18.02;;;12.00;99.90;;;;;;5081856;28;20048;-81
2023/05/12 03:24:36;;;;;;;32.55;18.27;;;12.10;99.90;;;;;;5098187;28;20166;-81
2023/05/12 03:27:01;;;;;;;35.92;18.48;;;12.10;99.90;;;;;;5080239;28;20036;-81
2023/05/12 03:29:27;;;;;;;33.92;16.42;;;12.20;99.90;;;;;;5098290;28;20040;-82
2023/05/12 03:31:52;;;;;;;31.83;17.77;;;12.10;99.90;;;;;;5098496;28;20040;-80
2023/05/12 03:34:18;;;;;;;30.83;17.38;;;12.10;99.90;;;;;;5097819;28;20040;-80
2023/05/12 03:36:44;;;;;;;32.22;17.48;;;12.10;99.90;;;;;;5096800;28;20067;-81
2023/05/12 03:39:11;;;;;;;39.20;18.88;;;12.10;99.90;;;;;;5088082;28;20039;-81
2023/05/12 03:41:37;;;;;;;31.17;18.25;;;12.10;99.90;;;;;;5090545;28;20119;-82
2023/05/12 03:44:04;;;;;;;33.00;17.65;;;12.00;99.90;;;;;;5095100;28;20463;-82
2023/05/12 03:46:30;;;;;;;34.08;18.45;;;12.10;99.90;;;;;;5095961;28;20044;-82
2023/05/12 03:48:56;;;;;;;36.28;18.35;;;12.10;99.90;;;;;;5108389;28;20538;-82
2023/05/12 03:51:21;;;;;;;32.58;17.90;;;12.10;99.90;;;;;;5093582;28;20063;-82
2023/05/12 03:53:47;;;;;;;32.55;17.33;;;12.10;99.90;;;;;;5059666;28;20037;-82
2023/05/12 03:56:14;;;;;;;30.77;16.90;;;12.10;99.90;;;;;;5079051;28;20044;-82
2023/05/12 03:58:40;;;;;;;39.92;17.58;;;12.10;99.90;;;;;;5093258;28;20040;-83
2023/05/12 04:01:05;;;;;;;33.15;17.63;;;12.10;99.90;;;;;;5071605;28;20239;-83
2023/05/12 04:03:31;;;;;;;34.30;17.95;;;12.10;99.90;;;;;;5083629;28;20507;-82
2023/05/12 04:06:01;;;;;;;31.75;17.77;;;12.10;99.90;;;;;;5076402;28;20036;-82
2023/05/12 04:08:27;;;;;;;33.70;17.17;;;12.10;99.90;;;;;;5093941;28;20086;-83
2023/05/12 04:11:00;;;;;;;32.08;17.27;;;12.10;99.90;;;;;;5093511;28;20040;-81
2023/05/12 04:13:27;;;;;;;30.83;16.75;;;12.20;99.90;;;;;;5085919;28;20032;-82
2023/05/12 04:15:59;;;;;;;28.48;16.88;;;12.20;99.90;;;;;;5087266;28;20044;-81
2023/05/12 04:18:26;;;;;;;33.13;17.30;;;12.20;99.90;;;;;;5091930;28;20082;-84
2023/05/12 04:20:52;;;;;;;31.05;17.00;;;12.20;99.90;;;;;;5091846;28;20043;-83
2023/05/12 04:23:18;;;;;;;33.13;19.25;;;12.20;99.90;;;;;;5092074;28;20392;-83
2023/05/12 04:25:44;;;;;;;34.70;17.83;;;12.20;99.90;;;;;;5091648;28;20046;-82
2023/05/12 04:28:09;;;;;;;33.40;17.67;;;12.20;99.90;;;;;;5077734;28;20028;-82
2023/05/12 04:30:39;;;;;;;32.10;17.60;;;12.20;99.90;;;;;;5091957;28;20101;-82
2023/05/12 04:33:05;;;;;;;32.50;17.85;;;12.20;99.90;;;;;;5091889;28;20423;-82
2023/05/12 04:35:30;;;;;;;32.95;18.42;;;12.20;99.90;;;;;;5083046;28;20119;-82
2023/05/12 04:37:56;;;;;;;35.78;17.33;;;12.20;99.90;;;;;;5081044;28;20469;-83
2023/05/12 04:40:21;;;;;;;30.15;18.58;;;12.20;99.90;;;;;;5074522;28;20496;-83
2023/05/12 04:42:47;;;;;;;31.25;17.60;;;12.20;99.90;;;;;;5091393;28;20507;-83
2023/05/12 04:45:12;;;;;;;35.80;17.73;;;12.30;99.90;;;;;;5092416;28;20036;-82
2023/05/12 04:47:38;;;;;;;32.38;17.52;;;12.20;99.90;;;;;;5091771;28;20314;-82
2023/05/12 04:50:04;;;;;;;32.78;18.52;;;12.30;99.90;;;;;;5091404;28;20184;-83
2023/05/12 04:56:07;;;;;;;37.28;18.75;;;12.30;99.90;;;;;;5076587;28;20036;-83
2023/05/12 04:58:33;;;;;;;35.45;19.60;;;12.30;99.90;;;;;;5091402;28;20032;-83
2023/05/12 05:00:59;;;;;;;38.55;19.92;;;12.30;99.90;;;;;;5091314;28;20072;-83
2023/05/12 05:03:24;;;;;;;30.80;18.40;;;12.40;99.90;;;;;;5091517;28;20074;-83
2023/05/12 05:05:50;;;;;;;33.38;19.33;;;12.40;99.90;;;;;;5090841;28;20044;-82
2023/05/12 05:08:15;;;;;;;35.10;18.40;;;12.40;99.90;;;;;;5091884;28;20081;-82
2023/05/12 05:10:41;;;;;;;33.10;19.58;;;12.40;99.90;;;;;;5091593;28;20055;-83
2023/05/12 05:13:06;;;;;;;35.35;19.42;;;12.40;99.90;;;;;;5091798;28;20264;-82
2023/05/12 05:15:32;;;;;;;36.00;19.50;;;12.50;99.90;;;;;;5092341;28;20134;-83
2023/05/12 05:17:58;;;;;;;36.05;19.42;;;12.50;99.90;;;;;;5092233;28;20043;-83
2023/05/12 05:20:24;;;;;;;34.88;19.98;;;12.50;99.90;;;;;;5074576;28;20028;-82
2023/05/12 05:22:49;;;;;;;35.65;19.55;;;12.50;99.90;;;;;;5090995;28;20039;-83
2023/05/12 05:25:15;;;;;;;35.97;19.63;;;12.50;99.90;;;;;;5091726;28;20036;-82
2023/05/12 05:27:41;;;;;;;34.22;20.10;;;12.60;99.90;;;;;;5091708;28;20036;-82
2023/05/12 05:30:08;;;;;;;35.25;20.58;;;12.60;99.90;;;;;;5093265;28;20120;-82
2023/05/12 05:32:39;;;;;;;38.78;20.77;;;12.60;99.90;;;;;;5075089;28;20623;-82
2023/05/12 05:35:05;;;;;;;41.60;22.05;;;12.50;99.90;;;;;;5092114;28;20601;-83
2023/05/12 05:37:30;;;;;;;33.72;20.20;;;12.50;99.90;;;;;;5091145;28;20058;-82
2023/05/12 05:39:56;;;;;;;38.60;20.83;;;12.50;99.90;;;;;;5060995;28;20040;-82
2023/05/12 05:42:22;;;;;;;40.33;21.38;;;12.50;99.90;;;;;;5091231;28;20126;-82
2023/05/12 05:44:47;;;;;;;41.60;21.95;;;12.50;99.90;;;;;;5091659;28;20523;-82
2023/05/12 05:47:13;;;;;;;37.22;20.23;;;12.50;99.90;;;;;;5091552;28;20024;-82
2023/05/12 05:49:38;;;;;;;35.65;20.17;;;12.60;99.90;;;;;;5092136;28;20040;-82
2023/05/12 05:52:04;;;;;;;39.25;21.15;;;12.60;99.90;;;;;;5077327;28;20032;-82
2023/05/12 05:54:29;;;;;;;37.40;20.98;;;12.60;99.90;;;;;;5075169;28;20085;-81
2023/05/12 05:56:55;;;;;;;36.22;21.20;;;12.60;99.90;;;;;;5103851;28;20043;-82
2023/05/12 05:59:20;;;;;;;38.78;21.33;;;12.60;99.90;;;;;;5094655;28;20043;-81
2023/05/12 06:01:46;;;;;;;36.20;21.58;;;12.60;99.90;;;;;;5065501;28;20446;-83
2023/05/12 06:04:11;;;;;;;39.13;22.58;;;12.60;99.90;;;;;;5072098;28;20044;-82
2023/05/12 06:06:37;;;;;;;39.55;20.73;;;12.70;99.90;;;;;;5080240;28;20032;-82
2023/05/12 06:09:03;;;;;;;36.45;21.27;;;12.70;99.90;;;;;;5094804;28;20090;-81
2023/05/12 06:11:28;;;;;;;35.33;22.17;;;12.80;99.90;;;;;;5108041;28;20094;-82
2023/05/12 06:13:54;;;;;;;37.15;21.70;;;12.80;99.90;;;;;;5094048;28;20040;-81
2023/05/12 06:16:19;;;;;;;36.03;20.65;;;12.90;99.90;;;;;;5098664;28;20449;-81
2023/05/12 06:18:45;;;;;;;36.53;21.77;;;12.90;99.90;;;;;;5115585;28;20407;-81
2023/05/12 06:21:10;;;;;;;36.33;20.92;;;13.00;99.90;;;;;;5100138;28;20036;-82
2023/05/12 06:23:36;;;;;;;39.00;22.50;;;13.10;99.90;;;;;;5095816;28;20051;-82
2023/05/12 06:26:02;;;;;;;38.72;20.83;;;13.20;99.90;;;;;;5097002;28;20039;-81
2023/05/12 06:28:27;;;;;;;35.85;20.92;;;13.20;99.90;;;;;;5097128;28;20499;-81
2023/05/12 06:30:53;;;;;;;37.20;20.63;;;13.30;99.90;;;;;;5096582;28;20399;-81
2023/05/12 06:33:18;;;;;;;36.20;22.00;;;13.30;99.90;;;;;;5095930;28;20028;-81
2023/05/12 06:35:44;;;;;;;33.45;21.27;;;13.40;99.90;;;;;;5080594;28;20135;-81
2023/05/12 06:38:09;;;;;;;35.88;20.30;;;13.40;99.90;;;;;;5097215;28;20119;-80
2023/05/12 06:40:35;;;;;;;33.70;19.85;;;13.50;99.90;;;;;;5082530;28;20039;-81
2023/05/12 06:43:00;;;;;;;35.03;20.70;;;13.50;99.90;;;;;;5084754;28;20040;-81
2023/05/12 06:45:26;;;;;;;33.40;20.35;;;13.60;99.90;;;;;;5099999;28;20040;-81
2023/05/12 06:47:51;;;;;;;34.50;21.02;;;13.60;99.90;;;;;;5099401;28;20039;-81
2023/05/12 06:50:17;;;;;;;32.55;21.08;;;13.60;99.90;;;;;;5098635;28;20495;-81
2023/05/12 06:52:43;;;;;;;34.10;19.98;;;13.70;99.90;;;;;;5099595;28;20043;-81
2023/05/12 06:55:09;;;;;;;38.22;20.27;;;13.70;99.90;;;;;;5099442;28;20040;-80
2023/05/12 06:57:34;;;;;;;34.83;21.40;;;13.80;99.90;;;;;;5113048;28;20047;-80
2023/05/12 07:00:01;;;;;;;34.42;20.23;;;13.80;99.90;;;;;;5099283;28;20047;-80
2023/05/12 07:02:28;;;;;;;38.60;22.65;;;13.80;99.90;;;;;;5097111;28;20047;-80
2023/05/12 07:04:53;;;;;;;34.97;22.73;;;13.90;99.90;;;;;;5098779;28;20496;-80
2023/05/12 07:07:19;;;;;;;32.72;21.25;;;13.90;99.90;;;;;;5098486;28;20050;-81
2023/05/12 07:09:44;;;;;;;36.72;22.23;;;13.90;99.90;;;;;;5098936;28;20062;-80
2023/05/12 07:12:10;;;;;;;37.92;23.40;;;13.90;99.90;;;;;;5100553;28;20032;-80
2023/05/12 07:14:36;;;;;;;37.85;22.85;;;13.90;99.90;;;;;;5099819;28;20063;-81
2023/05/12 07:17:02;;;;;;;33.75;21.63;;;14.00;99.90;;;;;;5101661;28;20039;-81
2023/05/12 07:19:28;;;;;;;38.92;23.45;;;14.00;99.90;;;;;;5099902;28;20066;-81
2023/05/12 07:21:53;;;;;;;35.95;23.00;;;14.00;99.90;;;;;;5100615;28;20040;-81
2023/05/12 07:24:19;;;;;;;37.03;22.67;;;14.00;99.90;;;;;;5114924;28;20137;-81
2023/05/12 07:26:44;;;;;;;39.25;24.17;;;14.10;99.90;;;;;;5100958;28;20469;-81
2023/05/12 07:29:10;;;;;;;40.35;24.35;;;14.10;99.90;;;;;;5083163;28;20036;-81
2023/05/12 07:31:36;;;;;;;40.83;25.40;;;14.20;99.90;;;;;;5098928;28;20036;-80
2023/05/12 07:34:01;;;;;;;41.05;24.05;;;14.20;99.90;;;;;;5098875;28;20560;-82
2023/05/12 07:36:27;;;;;;;38.03;25.20;;;14.30;99.90;;;;;;5099154;28;20443;-80
2023/05/12 07:38:53;;;;;;;41.35;25.23;;;14.30;99.90;;;;;;5098887;28;20062;-80
2023/05/12 07:41:18;;;;;;;43.97;26.52;;;14.40;99.90;;;;;;5098712;28;20043;-81
2023/05/12 07:43:44;;;;;;;45.13;25.95;;;14.50;99.90;;;;;;5082620;28;20079;-80
2023/05/12 07:46:10;;;;;;;40.25;26.00;;;14.50;99.90;;;;;;5099747;28;20109;-81
2023/05/12 07:48:38;;;;;;;39.20;26.48;;;14.70;99.90;;;;;;5084126;28;20028;-81
2023/05/12 07:51:05;;;;;;;41.85;26.58;;;14.80;99.90;;;;;;5100404;28;20054;-81
2023/05/12 07:53:31;;;;;;;45.38;27.73;;;15.00;99.90;;;;;;5099367;28;20036;-81
2023/05/12 07:55:56;;;;;;;47.22;29.60;;;15.10;99.90;;;;;;5103288;28;20514;-82
2023/05/12 07:58:22;;;;;;;45.03;29.08;;;15.30;99.90;;;;;;5109387;28;20043;-82
2023/05/12 08:00:47;;;;;;;42.35;28.63;;;15.40;99.90;;;;;;5084756;28;20048;-81
2023/05/12 08:03:15;;;;;;;43.65;29.13;;;15.60;99.90;;;;;;5098410;28;20032;-81
2023/05/12 08:05:40;;;;;;;43.42;28.77;;;15.70;99.90;;;;;;5099933;28;20440;-82
2023/05/12 08:08:08;;;;;;;45.88;30.40;;;15.80;99.90;;;;;;5097919;28;20059;-82
2023/05/12 08:10:33;;;;;;;42.83;29.42;;;16.00;99.90;;;;;;5097240;28;20032;-80
2023/05/12 08:12:59;;;;;;;40.83;29.00;;;16.10;99.90;;;;;;5097944;28;20089;-81
2023/05/12 08:15:24;;;;;;;39.15;29.20;;;16.10;99.90;;;;;;5098036;28;20568;-81
2023/05/12 08:17:50;;;;;;;40.88;28.27;;;16.20;99.90;;;;;;5098260;28;20457;-81
2023/05/12 08:20:15;;;;;;;39.63;28.40;;;16.20;99.90;;;;;;5098163;28;20131;-80
2023/05/12 08:22:41;;;;;;;38.47;28.52;;;16.30;99.90;;;;;;5098397;28;20415;-80
2023/05/12 08:25:07;;;;;;;36.65;27.25;;;16.30;99.90;;;;;;5096855;28;20133;-81
2023/05/12 08:27:32;;;;;;;39.03;28.85;;;16.40;99.90;;;;;;5084283;28;20036;-82
2023/05/12 08:29:58;;;;;;;35.90;27.30;;;16.40;99.90;;;;;;5095957;28;20427;-80
2023/05/12 08:32:24;;;;;;;40.17;27.17;;;16.50;99.90;;;;;;5098223;28;20073;-82
2023/05/12 08:34:50;;;;;;;35.85;27.42;;;16.50;99.90;;;;;;5098468;28;20050;-79
2023/05/12 08:37:15;;;;;;;37.35;26.83;;;16.60;99.90;;;;;;5098418;28;20036;-80
2023/05/12 08:39:41;;;;;;;37.22;26.85;;;16.70;99.90;;;;;;5097567;28;20036;-81
2023/05/12 08:42:19;;;;;;;35.47;26.30;;;16.80;99.90;;;;;;5081772;28;20031;-80
2023/05/12 08:44:46;;;;;;;35.28;25.77;;;16.80;99.90;;;;;;5096386;28;20052;-82
2023/05/12 08:47:12;;;;;;;30.95;24.73;;;16.90;99.90;;;;;;5096006;28;20043;-80
2023/05/12 08:49:40;;;;;;;31.55;25.30;;;17.00;99.90;;;;;;5097336;28;20091;-80
2023/05/12 08:52:08;;;;;;;32.70;25.48;;;17.10;99.90;;;;;;5095290;28;20032;-79
2023/05/12 08:54:35;;;;;;;33.42;25.77;;;17.20;99.90;;;;;;5084573;28;20037;-79
2023/05/12 08:57:02;;;;;;;31.98;24.42;;;17.40;99.90;;;;;;5104720;28;20396;-80
2023/05/12 08:59:28;;;;;;;30.95;24.63;;;17.50;99.90;;;;;;5079468;28;20388;-80
2023/05/12 09:01:55;;;;;;;29.23;23.92;;;17.60;99.90;;;;;;5094259;28;20248;-81
2023/05/12 09:04:20;;;;;;;29.25;23.45;;;17.70;99.90;;;;;;5095824;28;20040;-80
2023/05/12 09:06:46;;;;;;;28.25;22.23;;;17.90;99.90;;;;;;5097289;28;20067;-80
2023/05/12 09:09:14;;;;;;;30.23;23.25;;;18.00;99.90;;;;;;5080783;28;20518;-81
2023/05/12 09:11:41;;;;;;;31.65;23.15;;;18.20;99.90;;;;;;5115501;28;20051;-80
2023/05/12 09:14:22;;;;;;;27.52;23.20;;;18.30;99.90;;;;;;5096200;28;20503;-80
2023/05/12 09:16:52;;;;;;;29.92;23.02;;;18.40;99.90;;;;;;5083832;28;20492;-81
2023/05/12 09:19:19;;;;;;;27.88;22.73;;;18.60;99.90;;;;;;5095309;28;20067;-81
2023/05/12 09:21:45;;;;;;;32.85;22.80;;;18.70;99.90;;;;;;5097384;28;20039;-81
2023/05/12 09:24:10;;;;;;;25.98;21.35;;;18.80;99.90;;;;;;5097454;28;20052;-80
2023/05/12 09:26:54;;;;;;;25.88;21.25;;;18.90;99.90;;;;;;5096908;28;20067;-80
2023/05/12 09:29:20;;;;;;;26.98;22.02;;;18.90;99.90;;;;;;5096479;28;20061;-82
2023/05/12 09:31:50;;;;;;;27.63;21.00;;;18.90;99.90;;;;;;5096426;28;20024;-82
2023/05/12 09:34:16;;;;;;;24.40;20.85;;;18.90;99.90;;;;;;5079395;28;20104;-82
2023/05/12 09:36:42;;;;;;;26.50;20.83;;;18.90;99.90;;;;;;5097036;28;20068;-82
2023/05/12 09:39:09;;;;;;;23.75;20.58;;;18.90;99.90;;;;;;5096536;28;20092;-80
2023/05/12 09:41:41;;;;;;;24.08;20.42;;;19.00;99.90;;;;;;5095233;28;20468;-81
2023/05/12 09:44:08;;;;;;;25.47;19.90;;;19.10;99.90;;;;;;5112709;28;20483;-81
2023/05/12 09:46:35;;;;;;;23.77;19.63;;;19.10;99.90;;;;;;5096150;28;20044;-83
2023/05/12 09:49:02;;;;;;;24.13;20.65;;;19.10;99.90;;;;;;5095164;28;20058;-81
2023/05/12 09:51:29;;;;;;;26.35;20.55;;;19.10;99.90;;;;;;5094911;28;20036;-81
2023/05/12 09:53:56;;;;;;;24.17;19.38;;;19.20;99.90;;;;;;5080854;28;20103;-79
2023/05/12 09:56:24;;;;;;;21.17;18.65;;;19.20;99.90;;;;;;5101430;28;20031;-81
2023/05/12 09:58:49;;;;;;;23.27;18.70;;;19.30;99.90;;;;;;5083718;28;20085;-80
2023/05/12 10:01:19;;;;;;;21.60;18.42;;;19.50;99.90;;;;;;5094644;28;20032;-81
2023/05/12 10:03:47;;;;;;;27.40;19.33;;;19.60;99.90;;;;;;5077644;28;20453;-83
2023/05/12 10:06:30;;;;;;;22.73;18.85;;;19.80;99.90;;;;;;5093758;28;20067;-81
2023/05/12 10:09:47;;;;;;;22.60;19.80;;;19.90;99.90;;;;;;5094660;28;20032;-81
2023/05/12 10:12:13;;;;;;;22.40;17.67;;;19.90;99.90;;;;;;5067593;28;20045;-79
2023/05/12 10:14:39;;;;;;;25.20;19.70;;;20.00;99.90;;;;;;5095593;28;20104;-82
2023/05/12 10:17:05;;;;;;;22.92;18.48;;;20.10;99.90;;;;;;5097721;28;20085;-81
2023/05/12 10:19:31;;;;;;;21.70;18.45;;;20.20;99.90;;;;;;5098166;28;20055;-82
2023/05/12 10:21:57;;;;;;;24.42;18.35;;;20.10;99.90;;;;;;5097354;28;20044;-80
2023/05/12 10:24:27;;;;;;;20.02;17.33;;;20.20;99.90;;;;;;5098939;28;20048;-81
2023/05/12 10:26:56;;;;;;;21.58;18.02;;;20.30;99.90;;;;;;5082338;28;20499;-81
2023/05/12 10:29:28;;;;;;;21.55;17.83;;;20.50;99.90;;;;;;5099229;28;20040;-82
2023/05/12 10:31:58;;;;;;;18.48;16.48;;;20.60;99.90;;;;;;5097486;28;20036;-80
2023/05/12 10:34:29;;;;;;;17.35;15.48;;;20.70;99.90;;;;;;5096477;28;20047;-82
2023/05/12 10:36:57;;;;;;;18.42;15.85;;;20.70;99.90;;;;;;5096932;28;20063;-82
2023/05/12 10:39:29;;;;;;;18.02;14.45;;;20.70;99.90;;;;;;5097412;28;20115;-79
2023/05/12 10:42:07;;;;;;;16.33;14.27;;;20.80;99.90;;;;;;5096662;28;20481;-80
2023/05/12 10:44:35;;;;;;;16.23;13.48;;;20.80;99.90;;;;;;5079208;28;20031;-82
2023/05/12 10:47:01;;;;;;;16.40;14.55;;;20.90;99.90;;;;;;5095703;28;20042;-82
2023/05/12 10:49:58;;;;;;;17.80;14.95;;;21.00;99.90;;;;;;5096018;28;20047;-81
2023/05/12 10:52:24;;;;;;;17.38;14.50;;;21.00;99.90;;;;;;5071721;28;20127;-82
2023/05/12 10:54:58;;;;;;;15.40;13.68;;;21.10;99.90;;;;;;5072086;28;20596;-82
2023/05/12 10:57:24;;;;;;;17.00;13.98;;;21.20;99.90;;;;;;5110442;28;20448;-80
2023/05/12 10:59:54;;;;;;;17.73;13.15;;;21.20;99.90;;;;;;5094807;28;20058;-82
2023/05/12 11:02:31;;;;;;;12.52;10.75;;;21.30;99.90;;;;;;5095117;28;20040;-82
2023/05/12 11:05:05;;;;;;;13.20;11.75;;;21.40;99.90;;;;;;5078391;28;20040;-83
2023/05/12 11:07:32;;;;;;;14.25;12.73;;;21.50;99.90;;;;;;5094695;28;20188;-82
2023/05/12 11:10:00;;;;;;;15.63;13.77;;;21.70;99.90;;;;;;5094897;28;20032;-81
2023/05/12 11:12:31;;;;;;;15.38;13.77;;;21.80;99.90;;;;;;5095133;28;20047;-82
2023/05/12 11:14:59;;;;;;;16.27;12.50;;;22.00;99.90;;;;;;5078333;28;20552;-82
2023/05/12 11:17:25;;;;;;;15.18;12.80;;;22.10;99.90;;;;;;5095783;28;20100;-82
2023/05/12 11:19:51;;;;;;;15.05;11.63;;;22.20;99.90;;;;;;5095262;28;20060;-82
2023/05/12 11:22:18;;;;;;;12.65;11.35;;;22.30;99.90;;;;;;5096444;28;20075;-81
2023/05/12 11:24:44;;;;;;;12.85;11.48;;;22.50;99.90;;;;;;5095209;28;20051;-82
2023/05/12 11:27:15;;;;;;;12.63;10.32;;;22.50;99.90;;;;;;5094690;28;20032;-82
2023/05/12 11:29:42;;;;;;;12.30;10.20;;;22.50;99.90;;;;;;5094913;28;20458;-82
2023/05/12 11:32:09;;;;;;;15.48;11.02;;;22.50;99.90;;;;;;5111875;28;20050;-80
2023/05/12 11:34:34;;;;;;;13.52;11.50;;;22.60;99.90;;;;;;5094647;28;20044;-81
2023/05/12 11:37:02;;;;;;;16.75;11.20;;;22.80;99.90;;;;;;5094791;28;20039;-81
2023/05/12 11:39:31;;;;;;;13.60;10.73;;;22.90;99.90;;;;;;5094935;28;20043;-83
2023/05/12 11:42:08;;;;;;;10.70;9.50;;;23.10;99.90;;;;;;5094617;28;20032;-82
2023/05/12 11:44:34;;;;;;;12.07;10.77;;;23.40;99.90;;;;;;5093754;28;20530;-83
2023/05/12 11:47:11;;;;;;;16.88;11.02;;;23.50;99.90;;;;;;5094409;28;20032;-82
2023/05/12 11:49:48;;;;;;;12.40;11.15;;;23.70;99.90;;;;;;5094933;28;20360;-81
2023/05/12 11:52:14;;;;;;;8.15;7.05;;;23.80;99.90;;;;;;5095677;28;20265;-81
2023/05/12 11:54:48;;;;;;;8.07;6.78;;;23.90;99.90;;;;;;5095064;28;20545;-80
2023/05/12 11:57:24;;;;;;;8.65;7.72;;;24.00;99.90;;;;;;5109162;28;20048;-80
2023/05/12 11:59:56;;;;;;;8.38;7.55;;;24.10;99.90;;;;;;5094082;28;20084;-82
2023/05/12 12:02:22;;;;;;;9.50;7.00;;;24.00;99.90;;;;;;5095262;28;20503;-82
2023/05/12 12:04:48;;;;;;;7.75;6.88;;;24.10;99.90;;;;;;5095493;28;20122;-80
2023/05/12 12:07:13;;;;;;;8.13;6.60;;;24.10;99.90;;;;;;5095115;28;20054;-81
2023/05/12 12:09:40;;;;;;;9.35;7.63;;;24.20;99.90;;;;;;5058176;28;20032;-78
2023/05/12 12:12:07;;;;;;;7.78;6.80;;;24.30;99.90;;;;;;5085173;28;20035;-81
2023/05/12 12:14:34;;;;;;;9.75;7.43;;;24.50;99.90;;;;;;5092301;28;20044;-83
2023/05/12 12:17:00;;;;;;;7.55;6.53;;;24.50;99.90;;;;;;5092263;28;20044;-82
2023/05/12 12:19:27;;;;;;;11.40;6.60;;;24.70;99.90;;;;;;5092020;28;20036;-80
2023/05/12 12:21:53;;;;;;;5.68;4.85;;;24.90;99.90;;;;;;5094190;28;20048;-81
2023/05/12 12:24:19;;;;;;;5.80;5.20;;;24.80;99.90;;;;;;5094596;28;20072;-82
2023/05/12 12:26:44;;;;;;;5.90;4.75;;;24.90;99.90;;;;;;5094071;28;20079;-81
2023/05/12 12:29:10;;;;;;;7.45;5.45;;;25.10;99.90;;;;;;5095114;28;20036;-80
2023/05/12 12:31:36;;;;;;;5.18;4.10;;;25.20;99.90;;;;;;5060279;28;20044;-81